Time;durP1;ratioP1;P1;durP2;ratioP2;P2;SDS_P1;SDS_P2;PMS_P1;PMS_P2;Temp;Humidity;BMP_temperature;BMP_pressure;BME280_temperature;BME280_humidity;BME280_pressure;Samples;Min_cycle;Max_cycle;Signal;HPM_P1;HPM_P2
2022/05/20 00:01:21;;;;;;;;;;;18.20;1.00;;;;;;5074974;28;20010;-84
2022/05/20 00:03:58;;;;;;;;;;;18.20;1.00;;;;;;5072288;28;19913;-84
2022/05/20 00:06:26;;;;;;;;;;;18.20;99.90;;;;;;5096795;28;19943;-84
2022/05/20 00:08:56;;;;;;;;;;;18.20;99.90;;;;;;5073571;28;19921;-84
2022/05/20 00:11:42;;;;;;;;;;;18.20;99.90;;;;;;5081103;28;19909;-84
2022/05/20 00:14:31;;;;;;;;;;;18.20;99.90;;;;;;5055080;28;19968;-84
2022/05/20 00:17:06;;;;;;;;;;;18.20;99.90;;;;;;5081607;28;19908;-83
2022/05/20 00:19:41;;;;;;;;;;;18.10;99.90;;;;;;5075109;28;19913;-84
2022/05/20 00:22:07;;;;;;;;;;;18.10;1.00;;;;;;5079513;28;20365;-84
2022/05/20 00:25:45;;;;;;;;;;;18.10;1.00;;;;;;5091018;28;19915;-83
2022/05/20 00:27:39;;;;;;;;;;;18.10;1.00;;;;;;5060860;28;19909;-83
2022/05/20 00:30:13;;;;;;;;;;;18.10;1.00;;;;;;5076547;28;19912;-83
2022/05/20 00:32:52;;;;;;;;;;;18.10;1.00;;;;;;5062030;28;20007;-83
2022/05/20 00:35:28;;;;;;;;;;;;;;;;;;;;;
2022/05/20 00:38:15;;;;;;;;;;;18.00;99.90;;;;;;5060548;28;20004;-84
2022/05/20 00:40:43;;;;;;;;;;;17.90;99.90;;;;;;5060919;28;19909;-84
2022/05/20 00:43:20;;;;;;;;;;;18.00;99.90;;;;;;5068260;28;19916;-84
2022/05/20 00:45:50;;;;;;;;;;;18.00;99.90;;;;;;5068521;28;19916;-84
2022/05/20 00:48:24;;;;;;;;;;;18.10;99.90;;;;;;5086223;28;19913;-84
2022/05/20 00:50:56;;;;;;;;;;;18.10;99.90;;;;;;5074265;28;19914;-84
2022/05/20 00:53:38;;;;;;;;;;;18.10;99.90;;;;;;5084067;28;19916;-84
2022/05/20 00:56:26;;;;;;;;;;;18.10;43.20;;;;;;5070091;28;19916;-83
2022/05/20 00:58:56;;;;;;;;;;;18.10;10.80;;;;;;5069805;28;19919;-84
2022/05/20 01:01:36;;;;;;;;;;;18.20;1.00;;;;;;5073088;28;20336;-84
2022/05/20 01:04:24;;;;;;;;;;;18.20;1.00;;;;;;5068304;28;20437;-84
2022/05/20 01:06:55;;;;;;;;;;;18.20;1.00;;;;;;5067942;28;19939;-84
2022/05/20 01:09:26;;;;;;;;;;;18.20;1.00;;;;;;5090750;28;19930;-85
2022/05/20 01:12:01;;;;;;;;;;;18.20;1.00;;;;;;5078696;28;19920;-84
2022/05/20 01:17:24;;;;;;;;;;;18.10;1.00;;;;;;5084253;28;19917;-84
2022/05/20 01:19:57;;;;;;;;;;;18.00;1.00;;;;;;5083458;28;19960;-85
2022/05/20 01:22:42;;;;;;;;;;;17.90;99.90;;;;;;5064738;28;19908;-84
2022/05/20 01:25:10;;;;;;;;;;;17.90;99.90;;;;;;5092922;28;19931;-84
2022/05/20 01:27:47;;;;;;;;;;;17.80;99.90;;;;;;5079275;28;19939;-84
2022/05/20 01:33:33;;;;;;;;;;;17.70;1.00;;;;;;5064212;28;19923;-84
2022/05/20 01:36:01;;;;;;;;;;;17.60;1.00;;;;;;5074481;28;19912;-83
2022/05/20 01:38:36;;;;;;;;;;;17.50;1.00;;;;;;5066835;28;19919;-83
2022/05/20 01:41:16;;;;;;;;;;;17.40;1.00;;;;;;5071637;28;19920;-84
2022/05/20 01:43:58;;;;;;;;;;;17.40;1.00;;;;;;5073371;28;19928;-84
2022/05/20 01:46:45;;;;;;;;;;;17.30;1.00;;;;;;5070834;28;19920;-83
2022/05/20 01:49:30;;;;;;;;;;;17.30;21.70;;;;;;5079083;28;19920;-83
2022/05/20 01:52:06;;;;;;;;;;;17.30;45.90;;;;;;5093391;28;20383;-84
2022/05/20 01:54:40;;;;;;;;;;;17.20;99.90;;;;;;5075781;28;20289;-83
2022/05/20 01:57:32;;;;;;;;;;;17.20;99.90;;;;;;5085648;28;19987;-83
2022/05/20 02:00:29;;;;;;;;;;;17.10;99.90;;;;;;5075374;28;19912;-84
2022/05/20 02:03:18;;;;;;;;;;;17.10;99.90;;;;;;5073295;28;19912;-84
2022/05/20 02:06:00;;;;;;;;;;;17.00;99.90;;;;;;5064909;28;20023;-84
2022/05/20 02:08:52;;;;;;;;;;;17.00;99.90;;;;;;5076392;28;19913;-84
2022/05/20 02:11:22;;;;;;;;;;;17.00;99.90;;;;;;5077479;28;19920;-83
2022/05/20 02:14:39;;;;;;;;;;;;;;;;;;;;;
2022/05/20 02:17:29;;;;;;;;;;;16.90;99.90;;;;;;5070911;28;19913;-83
2022/05/20 02:20:13;;;;;;;;;;;16.90;99.90;;;;;;5070044;28;19909;-84
2022/05/20 02:23:09;;;;;;;;;;;17.00;99.90;;;;;;5082553;28;20019;-84
2022/05/20 02:25:47;;;;;;;;;;;17.00;99.90;;;;;;5065823;28;19984;-84
2022/05/20 02:28:19;;;;;;;;;;;17.10;99.90;;;;;;5074887;28;19952;-84
2022/05/20 02:34:02;;;;;;;;;;;17.10;99.90;;;;;;5064215;28;20240;-83
2022/05/20 02:36:37;;;;;;;;;;;17.10;99.90;;;;;;5062573;28;19927;-84
2022/05/20 02:39:14;;;;;;;;;;;17.10;99.90;;;;;;5069168;28;19912;-84
2022/05/20 02:42:06;;;;;;;;;;;17.10;99.90;;;;;;5074478;28;19979;-84
2022/05/20 02:44:51;;;;;;;;;;;17.10;99.90;;;;;;5079940;28;19919;-83
2022/05/20 02:47:24;;;;;;;;;;;17.10;99.90;;;;;;5072012;28;19912;-83
2022/05/20 02:49:53;;;;;;;;;;;17.10;99.90;;;;;;5075586;28;19913;-83
2022/05/20 02:52:31;;;;;;;;;;;17.00;99.90;;;;;;5091548;28;20117;-83
2022/05/20 02:55:33;;;;;;;;;;;;;;;;;;;;;
2022/05/20 02:58:09;;;;;;;;;;;;;;;;;;;;;
2022/05/20 03:06:54;;;;;;;;;;;16.50;1.00;;;;;;5068687;28;19943;-83
2022/05/20 03:09:46;;;;;;;;;;;16.50;1.00;;;;;;5075751;28;19952;-83
2022/05/20 03:12:20;;;;;;;;;;;16.40;1.00;;;;;;5092243;28;19966;-84
2022/05/20 03:15:22;;;;;;;;;;;16.40;1.00;;;;;;5095259;28;19913;-83
2022/05/20 03:17:58;;;;;;;;;;;16.40;1.00;;;;;;5075731;28;19939;-82
2022/05/20 03:20:29;;;;;;;;;;;16.50;1.00;;;;;;5081121;28;19967;-83
2022/05/20 03:23:35;;;;;;;;;;;16.50;1.00;;;;;;5079933;28;19917;-82
2022/05/20 03:26:15;;;;;;;;;;;16.60;1.00;;;;;;5081977;28;19909;-83
2022/05/20 03:32:07;;;;;;;;;;;16.80;1.00;;;;;;5075024;28;19927;-83
2022/05/20 03:37:59;;;;;;;;;;;16.70;1.00;;;;;;5063834;28;19921;-83
2022/05/20 03:40:35;;;;;;;;;;;;;;;;;;;;;
2022/05/20 03:43:09;;;;;;;;;;;16.80;1.00;;;;;;5073643;28;20357;-83
2022/05/20 03:45:45;;;;;;;;;;;16.90;1.00;;;;;;5087836;28;19965;-83
2022/05/20 03:48:16;;;;;;;;;;;17.00;1.00;;;;;;5075594;28;19978;-83
2022/05/20 03:50:49;;;;;;;;;;;17.10;1.00;;;;;;5088820;28;19912;-83
2022/05/20 03:53:26;;;;;;;;;;;17.10;99.90;;;;;;5079899;28;20273;-84
2022/05/20 03:56:11;;;;;;;;;;;17.20;99.90;;;;;;5094669;28;19934;-85
2022/05/20 04:04:34;;;;;;;;;;;17.30;99.90;;;;;;5074688;28;19934;-83
2022/05/20 04:07:23;;;;;;;;;;;17.30;99.90;;;;;;5067440;28;20074;-84
2022/05/20 04:13:00;;;;;;;;;;;17.20;99.90;;;;;;5072380;28;19984;-83
2022/05/20 04:15:55;;;;;;;;;;;;;;;;;;;;;
2022/05/20 04:18:44;;;;;;;;;;;17.20;99.90;;;;;;5079167;28;20011;-83
2022/05/20 04:21:39;;;;;;;;;;;17.10;99.90;;;;;;5080748;28;19919;-84
2022/05/20 04:24:13;;;;;;;;;;;17.20;99.90;;;;;;5065973;28;19913;-84
2022/05/20 04:26:56;;;;;;;;;;;;;;;;;;;;;
2022/05/20 04:29:22;;;;;;;;;;;17.10;99.90;;;;;;5072816;28;20019;-83
2022/05/20 04:32:20;;;;;;;;;;;;;;;;;;;;;
2022/05/20 04:34:35;;;;;;;;;;;17.00;99.90;;;;;;5068295;28;19925;-83
2022/05/20 04:37:00;;;;;;;;;;;17.00;1.00;;;;;;5073624;28;19935;-83
2022/05/20 04:39:41;;;;;;;;;;;;;;;;;;;;;
2022/05/20 04:48:00;;;;;;;;;;;;;;;;;;;;;
2022/05/20 04:50:58;;;;;;;;;;;;;;;;;;;;;
2022/05/20 04:59:27;;;;;;;;;;;;;;;;;;;;;
2022/05/20 05:01:56;;;;;;;;;;;17.00;1.00;;;;;;5082813;28;19960;-83
2022/05/20 05:04:41;;;;;;;;;;;17.10;1.00;;;;;;5072959;28;19928;-83
2022/05/20 05:07:19;;;;;;;;;;;;;;;;;;;;;
2022/05/20 05:09:56;;;;;;;;;;;;;;;;;;;;;
2022/05/20 05:12:45;;;;;;;;;;;17.40;99.90;;;;;;5079868;28;19963;-83
2022/05/20 05:15:47;;;;;;;;;;;;;;;;;;;;;
2022/05/20 05:18:22;;;;;;;;;;;17.60;99.90;;;;;;5084085;28;19940;-83
2022/05/20 05:21:05;;;;;;;;;;;17.70;99.90;;;;;;5081849;28;19996;-84
2022/05/20 05:23:43;;;;;;;;;;;;;;;;;;;;;
2022/05/20 05:26:22;;;;;;;;;;;17.80;99.90;;;;;;5085016;28;19967;-84
2022/05/20 05:28:50;;;;;;;;;;;18.00;99.90;;;;;;5076475;28;20442;-84
2022/05/20 05:31:16;;;;;;;;;;;18.20;1.00;;;;;;5077800;28;19913;-85
2022/05/20 05:33:44;;;;;;;;;;;18.70;99.90;;;;;;5084574;28;20437;-84
2022/05/20 05:36:30;;;;;;;;;;;19.00;1.00;;;;;;5066653;28;19913;-81
2022/05/20 05:38:58;;;;;;;;;;;19.20;1.00;;;;;;5077132;28;19920;-81
2022/05/20 05:44:23;;;;;;;;;;;19.30;99.90;;;;;;5075376;28;19908;-80
2022/05/20 05:46:53;;;;;;;;;;;19.60;99.90;;;;;;5070530;28;19909;-80
2022/05/20 05:49:21;;;;;;;;;;;19.70;1.00;;;;;;5072822;28;19928;-81
2022/05/20 05:51:56;;;;;;;;;;;;;;;;;;;;;
2022/05/20 05:54:27;;;;;;;;;;;21.50;1.00;;;;;;5072366;28;19983;-82
2022/05/20 05:56:56;;;;;;;;;;;23.70;1.00;;;;;;5064893;28;19909;-83
2022/05/20 05:59:31;;;;;;;;;;;25.60;99.90;;;;;;5079895;28;19908;-82
2022/05/20 06:04:48;;;;;;;;;;;28.50;99.90;;;;;;5077716;28;19921;-82
2022/05/20 06:07:16;;;;;;;;;;;28.40;99.90;;;;;;5077938;28;19917;-82
2022/05/20 06:09:42;;;;;;;;;;;26.50;99.90;;;;;;5073041;28;20230;-81
2022/05/20 06:12:10;;;;;;;;;;;24.90;99.90;;;;;;5070055;28;19948;-81
2022/05/20 06:14:35;;;;;;;;;;;24.10;99.90;;;;;;5068424;28;19916;-81
2022/05/20 06:19:49;;;;;;;;;;;23.10;99.90;;;;;;5072877;28;19912;-80
2022/05/20 06:22:14;;;;;;;;;;;22.90;99.90;;;;;;5072047;28;19909;-79
2022/05/20 06:24:43;;;;;;;;;;;23.30;99.90;;;;;;5073674;28;19961;-79
2022/05/20 06:27:09;;;;;;;;;;;23.70;99.90;;;;;;5064460;28;19913;-80
2022/05/20 06:29:35;;;;;;;;;;;23.70;99.90;;;;;;5063250;28;20007;-79
2022/05/20 06:32:01;;;;;;;;;;;24.50;99.90;;;;;;5062816;28;19931;-80
2022/05/20 06:39:48;;;;;;;;;;;26.40;99.90;;;;;;5077195;28;20007;-81
2022/05/20 06:40:07;;;;;;;;;;;28.50;99.90;;;;;;5079348;28;19916;-80
2022/05/20 06:42:43;;;;;;;;;;;;;;;;;;;;;
2022/05/20 06:45:10;;;;;;;;;;;26.10;99.90;;;;;;5072174;28;20007;-79
2022/05/20 06:47:36;;;;;;;;;;;25.10;99.90;;;;;;5077986;28;19912;-80
2022/05/20 06:50:04;;;;;;;;;;;24.40;99.90;;;;;;5071989;28;19986;-81
2022/05/20 06:52:33;;;;;;;;;;;24.20;99.90;;;;;;5085193;28;19921;-81
2022/05/20 06:54:59;;;;;;;;;;;25.40;99.90;;;;;;5078625;28;20473;-80
2022/05/20 06:57:30;;;;;;;;;;;25.20;99.90;;;;;;5094801;28;19920;-81
2022/05/20 06:59:58;;;;;;;;;;;26.80;99.90;;;;;;5096081;28;20376;-81
2022/05/20 07:02:24;;;;;;;;;;;26.60;99.90;;;;;;5080082;28;20418;-80
2022/05/20 07:04:52;;;;;;;;;;;26.80;99.90;;;;;;5088358;28;20030;-81
2022/05/20 07:07:23;;;;;;;;;;;29.00;99.90;;;;;;5074565;28;20054;-81
2022/05/20 07:09:49;;;;;;;;;;;32.50;99.90;;;;;;5072245;28;20357;-80
2022/05/20 07:12:15;;;;;;;;;;;35.10;99.90;;;;;;5074413;28;19920;-80
2022/05/20 07:14:51;;;;;;;;;;;37.40;99.90;;;;;;5080836;28;19948;-80
2022/05/20 07:17:17;;;;;;;;;;;39.50;99.90;;;;;;5075782;28;19970;-81
2022/05/20 07:19:53;;;;;;;;;;;;;;;;;;;;;
2022/05/20 07:22:19;;;;;;;;;;;41.20;99.90;;;;;;5079648;28;20375;-81
2022/05/20 07:24:47;;;;;;;;;;;41.70;99.90;;;;;;5079203;28;19955;-81
2022/05/20 07:27:13;;;;;;;;;;;43.00;99.90;;;;;;5074266;28;20276;-81
2022/05/20 07:29:41;;;;;;;;;;;42.30;99.90;;;;;;5072631;28;19909;-81
2022/05/20 07:32:09;;;;;;;;;;;42.00;99.90;;;;;;5078278;28;20391;-81
2022/05/20 07:34:37;;;;;;;;;;;40.90;99.90;;;;;;5080596;28;19916;-79
2022/05/20 07:37:11;;;;;;;;;;;42.00;99.90;;;;;;5080387;28;19915;-81
2022/05/20 07:39:39;;;;;;;;;;;43.90;99.90;;;;;;5074898;28;19965;-80
2022/05/20 07:42:07;;;;;;;;;;;44.10;99.90;;;;;;5081997;28;19913;-82
2022/05/20 07:44:33;;;;;;;;;;;44.70;99.90;;;;;;5079207;28;20377;-82
2022/05/20 07:46:59;;;;;;;;;;;44.70;99.90;;;;;;5074402;28;19913;-81
2022/05/20 07:49:24;;;;;;;;;;;45.40;99.90;;;;;;5078490;28;20003;-84
2022/05/20 07:51:54;;;;;;;;;;;46.10;99.90;;;;;;5075216;28;19930;-84
2022/05/20 07:54:23;;;;;;;;;;;43.10;99.90;;;;;;5097590;28;20387;-83
2022/05/20 07:56:52;;;;;;;;;;;40.30;99.90;;;;;;5074058;28;19920;-84
2022/05/20 07:59:30;;;;;;;;;;;38.10;99.90;;;;;;5094450;28;19932;-83
2022/05/20 08:01:56;;;;;;;;;;;36.90;99.90;;;;;;5078240;28;19912;-82
2022/05/20 08:07:08;;;;;;;;;;;34.20;99.90;;;;;;5075206;28;19934;-83
2022/05/20 08:09:33;;;;;;;;;;;34.00;99.90;;;;;;5080435;28;19913;-83
2022/05/20 08:11:59;;;;;;;;;;;35.00;99.90;;;;;;5072159;28;19943;-83
2022/05/20 08:14:26;;;;;;;;;;;35.20;99.90;;;;;;5078545;28;19927;-83
2022/05/20 08:16:51;;;;;;;;;;;35.90;99.90;;;;;;5074102;28;19913;-83
2022/05/20 08:19:17;;;;;;;;;;;37.30;99.90;;;;;;5075995;28;19919;-83
2022/05/20 08:21:43;;;;;;;;;;;37.10;99.90;;;;;;5080327;28;19991;-83
2022/05/20 08:24:08;;;;;;;;;;;35.10;99.90;;;;;;5086146;28;19912;-82
2022/05/20 08:26:34;;;;;;;;;;;32.70;99.90;;;;;;5074038;28;19927;-82
2022/05/20 08:28:59;;;;;;;;;;;31.50;99.90;;;;;;5074631;28;19951;-82
2022/05/20 08:31:25;;;;;;;;;;;30.60;99.90;;;;;;5075898;28;19913;-83
2022/05/20 08:33:51;;;;;;;;;;;29.40;99.90;;;;;;5073685;28;20368;-83
2022/05/20 08:36:17;;;;;;;;;;;28.40;99.90;;;;;;5077420;28;19920;-82
2022/05/20 08:38:42;;;;;;;;;;;28.10;99.90;;;;;;5078345;28;19918;-82
2022/05/20 08:41:08;;;;;;;;;;;28.10;99.90;;;;;;5077816;28;19912;-82
2022/05/20 08:43:34;;;;;;;;;;;28.50;99.90;;;;;;5089592;28;19953;-82
2022/05/20 08:46:00;;;;;;;;;;;28.80;99.90;;;;;;5078221;28;19942;-82
2022/05/20 08:48:26;;;;;;;;;;;29.90;99.90;;;;;;5071739;28;19912;-83
2022/05/20 08:50:56;;;;;;;;;;;30.80;99.90;;;;;;5073402;28;19977;-82
2022/05/20 08:53:23;;;;;;;;;;;32.50;99.90;;;;;;5087563;28;19963;-83
2022/05/20 08:55:49;;;;;;;;;;;34.60;99.90;;;;;;5079176;28;19913;-83
2022/05/20 08:58:17;;;;;;;;;;;36.30;99.90;;;;;;5073312;28;19987;-84
2022/05/20 09:00:43;;;;;;;;;;;34.60;99.90;;;;;;5081350;28;19919;-83
2022/05/20 09:03:09;;;;;;;;;;;33.20;99.90;;;;;;5080859;28;19928;-83
2022/05/20 09:05:36;;;;;;;;;;;33.40;99.90;;;;;;5080440;28;20003;-83
2022/05/20 09:08:05;;;;;;;;;;;33.80;99.90;;;;;;5079313;28;19920;-83
2022/05/20 09:10:51;;;;;;;;;;;32.40;99.90;;;;;;5081417;28;20357;-83
2022/05/20 09:13:16;;;;;;;;;;;31.60;99.90;;;;;;5070057;28;19923;-82
2022/05/20 09:15:46;;;;;;;;;;;32.50;99.90;;;;;;5079942;28;19912;-83
2022/05/20 09:18:30;;;;;;;;;;;33.20;99.90;;;;;;5089609;28;19913;-83
2022/05/20 09:20:56;;;;;;;;;;;33.20;99.90;;;;;;5096589;28;19913;-83
2022/05/20 09:23:22;;;;;;;;;;;35.70;99.90;;;;;;5090412;28;19917;-83
2022/05/20 09:25:56;;;;;;;;;;;37.80;99.90;;;;;;5074833;28;19966;-83
2022/05/20 09:28:38;;;;;;;;;;;37.90;99.90;;;;;;5074757;28;20373;-83
2022/05/20 09:31:06;;;;;;;;;;;37.60;99.90;;;;;;5079374;28;20273;-83
2022/05/20 09:33:34;;;;;;;;;;;38.50;99.90;;;;;;5088097;28;19926;-83
2022/05/20 09:36:01;;;;;;;;;;;37.60;99.90;;;;;;5078259;28;19913;-83
2022/05/20 09:38:29;;;;;;;;;;;38.80;99.90;;;;;;5092693;28;20350;-83
2022/05/20 09:40:55;;;;;;;;;;;36.90;99.90;;;;;;5079652;28;20387;-83
2022/05/20 09:43:22;;;;;;;;;;;38.00;99.90;;;;;;5105531;28;19955;-84
2022/05/20 09:45:48;;;;;;;;;;;38.10;99.90;;;;;;5076369;28;19913;-83
2022/05/20 09:48:19;;;;;;;;;;;37.80;99.90;;;;;;5093986;28;19983;-83
2022/05/20 09:50:55;;;;;;;;;;;36.20;99.90;;;;;;5079258;28;19976;-83
2022/05/20 09:53:26;;;;;;;;;;;34.70;99.90;;;;;;5082108;28;20004;-83
2022/05/20 09:56:10;;;;;;;;;;;34.00;99.90;;;;;;5077396;28;19921;-85
2022/05/20 09:58:37;;;;;;;;;;;34.80;99.90;;;;;;5075863;28;19919;-85
2022/05/20 10:01:11;;;;;;;;;;;36.40;99.90;;;;;;5076684;28;19964;-85
2022/05/20 10:03:38;;;;;;;;;;;37.20;99.90;;;;;;5074981;28;19913;-85
2022/05/20 10:06:24;;;;;;;;;;;36.90;99.90;;;;;;5081324;28;19912;-85
2022/05/20 10:09:01;;;;;;;;;;;36.00;99.90;;;;;;5074385;28;19916;-85
2022/05/20 10:11:32;;;;;;;;;;;36.20;99.90;;;;;;5076001;28;19920;-85
2022/05/20 10:14:03;;;;;;;;;;;35.90;99.90;;;;;;5077332;28;19992;-85
2022/05/20 10:16:38;;;;;;;;;;;36.30;99.90;;;;;;5075726;28;19912;-85
2022/05/20 10:19:11;;;;;;;;;;;37.00;99.90;;;;;;5080222;28;19924;-85
2022/05/20 10:21:42;;;;;;;;;;;37.50;99.90;;;;;;5098771;28;19908;-84
2022/05/20 10:24:08;;;;;;;;;;;38.00;99.90;;;;;;5081666;28;19920;-84
2022/05/20 10:26:36;;;;;;;;;;;38.40;99.90;;;;;;5080563;28;19916;-85
2022/05/20 10:34:49;;;;;;;;;;;38.80;99.90;;;;;;5082149;28;20280;-85
2022/05/20 10:37:34;;;;;;;;;;;39.50;99.90;;;;;;5096366;28;19913;-84
2022/05/20 10:40:06;;;;;;;;;;;40.00;99.90;;;;;;5072785;28;20301;-83
2022/05/20 10:42:50;;;;;;;;;;;39.50;99.90;;;;;;5074398;28;19913;-83
2022/05/20 10:48:36;;;;;;;;;;;39.10;99.90;;;;;;5068092;28;19934;-83
2022/05/20 10:51:12;;;;;;;;;;;39.10;99.90;;;;;;5067256;28;19920;-83
2022/05/20 10:53:50;;;;;;;;;;;39.20;99.90;;;;;;5074123;28;19916;-83
2022/05/20 10:56:39;;;;;;;;;;;39.00;99.90;;;;;;5072823;28;19912;-83
2022/05/20 10:59:34;;;;;;;;;;;39.70;99.90;;;;;;5077699;28;19916;-83
2022/05/20 11:02:13;;;;;;;;;;;39.50;99.90;;;;;;5070055;28;19925;-83
2022/05/20 11:05:02;;;;;;;;;;;39.10;99.90;;;;;;5074686;28;19919;-83
2022/05/20 11:07:47;;;;;;;;;;;38.70;99.90;;;;;;5066009;28;19913;-82
2022/05/20 11:10:12;;;;;;;;;;;38.00;99.90;;;;;;5076603;28;19919;-83
2022/05/20 11:12:37;;;;;;;;;;;37.20;99.90;;;;;;5076105;28;20288;-83
2022/05/20 11:15:11;;;;;;;;;;;37.00;99.90;;;;;;5076611;28;20478;-83
2022/05/20 11:17:44;;;;;;;;;;;36.60;99.90;;;;;;5074048;28;19909;-83
2022/05/20 11:20:24;;;;;;;;;;;36.20;99.90;;;;;;5072394;28;19917;-83
2022/05/20 11:23:02;;;;;;;;;;;35.50;99.90;;;;;;5077921;28;19916;-83
2022/05/20 11:25:27;;;;;;;;;;;35.60;99.90;;;;;;5077640;28;20353;-83
2022/05/20 11:28:12;;;;;;;;;;;35.40;99.90;;;;;;5078987;28;19924;-82
2022/05/20 11:30:43;;;;;;;;;;;34.90;99.90;;;;;;5093033;28;20364;-82
2022/05/20 11:33:17;;;;;;;;;;;33.60;99.90;;;;;;5078880;28;19916;-82
2022/05/20 11:36:01;;;;;;;;;;;33.50;99.90;;;;;;5093584;28;20276;-82
2022/05/20 11:38:49;;;;;;;;;;;33.20;99.90;;;;;;5090014;28;19932;-82
2022/05/20 11:41:25;;;;;;;;;;;32.80;99.90;;;;;;5078093;28;19999;-81
2022/05/20 11:43:53;;;;;;;;;;;31.80;99.90;;;;;;5071878;28;20373;-82
2022/05/20 11:46:22;;;;;;;;;;;31.00;99.90;;;;;;5078776;28;19913;-81
2022/05/20 11:48:57;;;;;;;;;;;30.70;99.90;;;;;;5077449;28;20277;-81
2022/05/20 11:51:41;;;;;;;;;;;30.10;99.90;;;;;;5091715;28;19965;-80
2022/05/20 11:54:12;;;;;;;;;;;29.50;99.90;;;;;;5074685;28;19922;-81
2022/05/20 11:56:43;;;;;;;;;;;29.00;99.90;;;;;;5075994;28;19919;-81
2022/05/20 11:59:20;;;;;;;;;;;28.40;99.90;;;;;;5072819;28;19927;-82
2022/05/20 12:01:47;;;;;;;;;;;28.20;99.90;;;;;;5077350;28;21493;-81
2022/05/20 12:04:13;;;;;;;;;;;28.00;99.90;;;;;;5075514;28;19924;-81
2022/05/20 12:06:47;;;;;;;;;;;27.60;99.90;;;;;;5074903;28;19962;-84
2022/05/20 12:09:24;;;;;;;;;;;27.30;99.90;;;;;;5074312;28;19912;-82
2022/05/20 12:12:11;;;;;;;;;;;27.00;99.90;;;;;;5073471;28;19916;-82
2022/05/20 12:14:55;;;;;;;;;;;26.80;99.90;;;;;;5076650;28;20005;-82
2022/05/20 12:17:39;;;;;;;;;;;26.60;1.00;;;;;;5075827;28;19919;-82
2022/05/20 12:25:58;;;;;;;;;;;25.30;99.90;;;;;;5081176;28;19947;-82
2022/05/20 12:28:29;;;;;;;;;;;25.00;1.00;;;;;;5085132;28;19913;-85
2022/05/20 12:31:03;;;;;;;;;;;24.70;1.00;;;;;;5101791;28;19915;-85
2022/05/20 12:33:48;;;;;;;;;;;24.20;1.00;;;;;;5073749;28;19913;-84
2022/05/20 12:36:18;;;;;;;;;;;23.50;1.00;;;;;;5079669;28;19912;-84
2022/05/20 12:38:44;;;;;;;;;;;23.20;1.00;;;;;;5096759;28;20376;-84
2022/05/20 12:41:33;;;;;;;;;;;22.90;1.00;;;;;;5081084;28;19956;-84
2022/05/20 12:44:01;;;;;;;;;;;22.80;1.00;;;;;;5071592;28;19954;-84
2022/05/20 12:46:32;;;;;;;;;;;22.80;1.00;;;;;;5097326;28;19912;-83
2022/05/20 12:48:58;;;;;;;;;;;22.60;1.00;;;;;;5081016;28;19973;-84
2022/05/20 12:51:33;;;;;;;;;;;;;;;;;;;;;
2022/05/20 12:54:01;;;;;;;;;;;22.00;1.00;;;;;;5078694;28;19985;-83
2022/05/20 12:56:28;;;;;;;;;;;21.70;1.00;;;;;;5071929;28;19928;-81
2022/05/20 12:59:10;;;;;;;;;;;21.70;1.00;;;;;;5077271;28;19920;-81
2022/05/20 13:01:36;;;;;;;;;;;21.80;1.00;;;;;;5074872;28;19912;-81
2022/05/20 13:04:07;;;;;;;;;;;21.80;1.00;;;;;;5076964;28;20047;-81
2022/05/20 13:06:32;;;;;;;;;;;21.90;1.00;;;;;;5075366;28;20334;-81
2022/05/20 13:09:03;;;;;;;;;;;22.10;1.00;;;;;;5073020;28;19989;-81
2022/05/20 13:11:38;;;;;;;;;;;22.20;1.00;;;;;;5074214;28;19913;-81
2022/05/20 13:14:04;;;;;;;;;;;22.50;1.00;;;;;;5074668;28;20015;-81
2022/05/20 13:16:31;;;;;;;;;;;22.80;1.00;;;;;;5082614;28;19963;-82
2022/05/20 13:19:00;;;;;;;;;;;23.10;1.00;;;;;;5062717;28;19917;-81
2022/05/20 13:21:27;;;;;;;;;;;23.70;1.00;;;;;;5075617;28;19913;-81
2022/05/20 13:23:55;;;;;;;;;;;24.60;99.90;;;;;;5069626;28;19947;-82
2022/05/20 13:26:27;;;;;;;;;;;25.40;1.00;;;;;;5063181;28;20608;-81
2022/05/20 13:28:57;;;;;;;;;;;25.60;99.90;;;;;;5082870;28;19927;-81
2022/05/20 13:31:24;;;;;;;;;;;25.80;99.90;;;;;;5061931;28;19960;-81
2022/05/20 13:33:50;;;;;;;;;;;26.20;99.90;;;;;;5076804;28;19916;-81
2022/05/20 13:36:19;;;;;;;;;;;26.40;99.90;;;;;;5063750;28;19920;-79
2022/05/20 13:38:49;;;;;;;;;;;26.40;1.00;;;;;;5077284;28;19913;-81
2022/05/20 13:41:15;;;;;;;;;;;26.20;1.00;;;;;;5073083;28;20323;-81
2022/05/20 13:43:41;;;;;;;;;;;26.00;99.90;;;;;;5060991;28;19923;-81
2022/05/20 13:49:13;;;;;;;;;;;25.90;1.00;;;;;;5061684;28;19975;-81
2022/05/20 13:51:44;;;;;;;;;;;25.90;99.90;;;;;;5074909;28;19913;-80
2022/05/20 13:54:12;;;;;;;;;;;25.90;99.90;;;;;;5058923;28;19913;-81
2022/05/20 13:56:40;;;;;;;;;;;25.80;99.90;;;;;;5079557;28;19919;-81
2022/05/20 13:59:16;;;;;;;;;;;25.80;1.00;;;;;;5066042;28;19999;-81
2022/05/20 14:01:45;;;;;;;;;;;25.70;1.00;;;;;;5059981;28;19912;-81
2022/05/20 14:04:10;;;;;;;;;;;25.40;99.90;;;;;;5060866;28;20405;-81
2022/05/20 14:06:37;;;;;;;;;;;24.90;99.90;;;;;;5075630;28;19920;-80
2022/05/20 14:09:03;;;;;;;;;;;24.60;1.00;;;;;;5045318;28;19921;-80
2022/05/20 14:11:30;;;;;;;;;;;24.30;1.00;;;;;;5063435;28;19947;-81
2022/05/20 14:14:00;;;;;;;;;;;24.20;99.90;;;;;;5065426;28;19921;-81
2022/05/20 14:16:30;;;;;;;;;;;24.00;99.90;;;;;;5064492;28;20437;-80
2022/05/20 14:18:58;;;;;;;;;;;23.70;1.00;;;;;;5077406;28;19943;-80
2022/05/20 14:21:28;;;;;;;;;;;23.40;1.00;;;;;;5076839;28;19923;-82
2022/05/20 14:23:55;;;;;;;;;;;23.10;99.90;;;;;;5066503;28;21377;-82
2022/05/20 14:26:20;;;;;;;;;;;22.90;1.00;;;;;;5076862;28;19921;-82
2022/05/20 14:28:50;;;;;;;;;;;22.80;1.00;;;;;;5077467;28;19935;-82
2022/05/20 14:31:41;;;;;;;;;;;22.60;99.30;;;;;;5067927;28;19913;-82
2022/05/20 14:34:21;;;;;;;;;;;22.50;1.00;;;;;;5061774;28;19920;-81
2022/05/20 14:36:50;;;;;;;;;;;22.40;1.00;;;;;;5076453;28;19920;-82
2022/05/20 14:39:19;;;;;;;;;;;22.40;98.00;;;;;;5070341;28;19920;-83
2022/05/20 14:42:00;;;;;;;;;;;22.50;99.90;;;;;;5078806;28;19920;-83
2022/05/20 14:44:34;;;;;;;;;;;22.60;1.00;;;;;;5078221;28;19924;-83
2022/05/20 14:47:20;;;;;;;;;;;22.60;1.00;;;;;;5070909;28;19921;-83
2022/05/20 14:49:53;;;;;;;;;;;22.70;99.90;;;;;;5062424;28;19913;-83
2022/05/20 14:52:28;;;;;;;;;;;22.80;99.90;;;;;;5067991;28;20655;-83
2022/05/20 14:54:53;;;;;;;;;;;22.90;1.00;;;;;;5071984;28;19916;-83
2022/05/20 14:57:41;;;;;;;;;;;23.00;1.00;;;;;;5069414;28;19989;-82
2022/05/20 15:00:14;;;;;;;;;;;23.20;1.00;;;;;;5075950;28;19962;-82
2022/05/20 15:02:45;;;;;;;;;;;23.60;99.90;;;;;;5092099;28;19912;-83
2022/05/20 15:05:23;;;;;;;;;;;24.00;99.90;;;;;;5072390;28;19920;-83
2022/05/20 15:07:56;;;;;;;;;;;24.70;1.00;;;;;;5082851;28;19966;-82
2022/05/20 15:10:22;;;;;;;;;;;25.00;1.00;;;;;;5070309;28;19913;-82
2022/05/20 15:12:48;;;;;;;;;;;25.00;1.00;;;;;;5074492;28;19922;-82
2022/05/20 15:15:14;;;;;;;;;;;24.70;99.90;;;;;;5073743;28;20034;-82
2022/05/20 15:17:57;;;;;;;;;;;24.20;99.90;;;;;;5075665;28;19970;-82
2022/05/20 15:20:23;;;;;;;;;;;23.80;94.80;;;;;;5061363;28;19916;-81
2022/05/20 15:22:48;;;;;;;;;;;23.30;1.00;;;;;;5074186;28;20054;-82
2022/05/20 15:25:16;;;;;;;;;;;22.80;99.90;;;;;;5092881;28;19927;-82
2022/05/20 15:27:42;;;;;;;;;;;22.50;99.90;;;;;;5064971;28;19909;-81
2022/05/20 15:30:08;;;;;;;;;;;22.20;1.00;;;;;;5064741;28;19931;-81
2022/05/20 15:35:18;;;;;;;;;;;21.80;1.00;;;;;;5078674;28;19974;-82
2022/05/20 15:37:43;;;;;;;;;;;21.80;99.90;;;;;;5075132;28;19912;-82
2022/05/20 15:40:15;;;;;;;;;;;21.60;7.80;;;;;;5072057;28;19917;-81
2022/05/20 15:42:41;;;;;;;;;;;21.50;92.50;;;;;;5071505;28;19958;-82
2022/05/20 15:45:07;;;;;;;;;;;21.40;1.00;;;;;;5062823;28;19917;-82
2022/05/20 15:47:38;;;;;;;;;;;21.30;1.00;;;;;;5065027;28;20104;-82
2022/05/20 15:50:04;;;;;;;;;;;21.30;99.90;;;;;;5063562;28;19923;-83
2022/05/20 15:52:32;;;;;;;;;;;21.20;1.00;;;;;;5066271;28;19915;-82
2022/05/20 15:55:00;;;;;;;;;;;21.00;99.90;;;;;;5066948;28;19919;-82
2022/05/20 15:57:26;;;;;;;;;;;20.90;99.90;;;;;;5062308;28;19919;-82
2022/05/20 15:59:52;;;;;;;;;;;20.80;99.90;;;;;;5086424;28;19916;-83
2022/05/20 16:02:19;;;;;;;;;;;20.70;99.90;;;;;;5076276;28;20008;-82
2022/05/20 16:04:45;;;;;;;;;;;20.70;12.60;;;;;;5069619;28;19913;-82
2022/05/20 16:07:12;;;;;;;;;;;20.60;1.00;;;;;;5074332;28;19920;-82
2022/05/20 16:09:38;;;;;;;;;;;20.60;11.70;;;;;;5082079;28;19912;-81
2022/05/20 16:12:04;;;;;;;;;;;20.60;1.00;;;;;;5075261;28;19931;-82
2022/05/20 16:14:30;;;;;;;;;;;20.50;1.00;;;;;;5070593;28;19916;-82
2022/05/20 16:16:56;;;;;;;;;;;20.50;46.10;;;;;;5071160;28;19912;-82
2022/05/20 16:19:22;;;;;;;;;;;20.50;21.90;;;;;;5068906;28;20023;-82
2022/05/20 16:21:49;;;;;;;;;;;20.50;99.90;;;;;;5065748;28;19939;-81
2022/05/20 16:25:59;;;;;;;;;;;20.50;99.90;;;;;;5109236;27;19923;-82
2022/05/20 16:28:25;;;;;;;;;;;20.70;99.90;;;;;;5112185;28;19979;-81
2022/05/20 16:30:51;;;;;;;;;;;20.80;99.90;;;;;;5125217;28;19920;-82
2022/05/20 16:33:16;;;;;;;;;;;20.90;99.90;;;;;;5101415;28;20260;-82
2022/05/20 16:35:42;;;;;;;;;;;20.90;99.90;;;;;;5101201;28;19995;-82